< Typhoon 199810 1998 Season Typhoon 199812 >
Typhoon 199811 (BABS)
General InformationTrack Information on Google MapsDetailed Wind InformationList of All Images || Disaster Info.ResourceGoogle EarthGE AnimationAtom FeedGeoJSON
Detalied Best Track (Time Zone = UTC)
Year Month Day Hour Lat. Long. Pressure (hPa) Wind (kt) Class Image Chart
1998 10 14 06 10.5 138.3 1004 0 2 Image Chart
1998 10 14 12 10.8 137.6 1004 0 2 Image Chart
1998 10 14 18 11.3 136.8 1000 0 2 Image Chart
1998 10 15 00 11.6 136.0 998 35 3 Image Chart
1998 10 15 06 11.8 135.3 998 35 3 Image Chart
1998 10 15 12 11.9 134.5 996 35 3 Image Chart
1998 10 15 18 11.9 133.5 996 35 3 Image Chart
1998 10 16 00 11.8 132.7 996 35 3 Image Chart
1998 10 16 06 11.8 132.3 996 35 3 Image Chart
1998 10 16 12 11.8 132.0 998 35 3 Image Chart
1998 10 16 18 11.8 131.7 998 35 3 Image Chart
1998 10 17 00 11.8 131.5 998 35 3 Image Chart
1998 10 17 06 11.8 131.1 998 35 3 Image Chart
1998 10 17 12 11.7 130.7 998 35 3 Image Chart
1998 10 17 18 11.6 130.4 998 35 3 Image Chart
1998 10 18 00 11.4 130.1 998 35 3 Image Chart
1998 10 18 06 11.1 129.8 998 35 3 Image Chart
1998 10 18 12 10.8 129.7 994 40 3 Image Chart
1998 10 18 18 10.5 129.7 992 45 3 Image Chart
1998 10 19 00 10.6 129.9 985 55 4 Image Chart
1998 10 19 06 10.8 129.8 985 55 4 Image Chart
1998 10 19 12 10.9 129.5 980 60 4 Image Chart
1998 10 19 18 11.1 129.0 975 65 5 Image Chart
1998 10 20 00 11.5 128.2 965 75 5 Image Chart
1998 10 20 06 11.8 127.7 950 80 5 Image Chart
1998 10 20 12 12.2 127.2 940 85 5 Image Chart
1998 10 20 18 12.8 126.4 940 85 5 Image Chart
1998 10 21 00 13.2 125.7 940 85 5 Image Chart
1998 10 21 06 13.5 125.0 940 85 5 Image Chart
1998 10 21 12 13.7 124.3 945 85 5 Image Chart
1998 10 21 18 13.9 123.7 950 80 5 Image Chart
1998 10 22 00 14.1 123.2 955 75 5 Image Chart
1998 10 22 06 14.5 122.6 960 70 5 Image Chart
1998 10 22 12 14.9 122.0 965 70 5 Image Chart
1998 10 22 18 15.6 121.3 970 65 5 Image Chart
1998 10 23 00 16.4 120.1 970 60 4 Image Chart
1998 10 23 06 16.6 119.4 970 60 4 Image Chart
1998 10 23 12 16.7 118.7 970 65 5 Image Chart
1998 10 23 18 16.9 118.0 970 65 5 Image Chart
1998 10 24 00 17.2 117.3 970 70 5 Image Chart
1998 10 24 06 17.7 116.7 970 70 5 Image Chart
1998 10 24 12 18.2 116.3 965 75 5 Image Chart
1998 10 24 18 18.7 116.0 965 75 5 Image Chart
1998 10 25 00 19.2 115.8 965 70 5 Image Chart
1998 10 25 06 19.8 115.7 965 70 5 Image Chart
1998 10 25 12 20.3 115.7 965 70 5 Image Chart
1998 10 25 18 20.8 115.8 965 70 5 Image Chart
1998 10 26 00 21.3 116.2 970 65 5 Image Chart
1998 10 26 06 21.8 116.6 975 60 4 Image Chart
1998 10 26 12 22.4 117.1 975 60 4 Image Chart
1998 10 26 18 22.8 117.4 980 55 4 Image Chart
1998 10 27 00 23.1 117.7 990 45 3 Image Chart
1998 10 27 06 23.2 117.8 998 35 3 Image Chart
1998 10 27 12 23.3 118.0 1004 0 6 Image Chart
1998 10 27 18 25.1 120.8 1012 0 6 Image Chart
1998 10 28 00 26.3 122.6 1012 0 6 Image Chart
1998 10 28 06 27.9 125.3 1012 0 6 Image Chart
1998 10 28 12 28.8 127.4 1012 0 6 Image Chart
1998 10 28 18 29.8 129.6 1012 0 6 Image Chart
1998 10 29 00 30.0 132.7 1012 0 6 Image Chart
1998 10 29 06 30.1 135.4 1012 0 6 Image Chart
1998 10 29 12 30.4 137.1 1012 0 6 Image Chart
1998 10 29 18 30.6 138.0 1014 0 6 Image Chart
1998 10 30 00 30.8 138.9 1014 0 6 Image Chart
Japan Meteorological Agency Best Track Data | Correction Date : 1999-01-11
< Typhoon 199810 1998 Season Typhoon 199812 >

Help